sensor_id;sensor_type;location;lat;lon;timestamp;pressure;altitude;pressure_sealevel;temperature
75431;BMP280;64127;51.488;5.462;2022-10-31T00:01:28;101830.09;;;18.08
75431;BMP280;64127;51.488;5.462;2022-10-31T00:04:05;101865.81;;;18.20
75431;BMP280;64127;51.488;5.462;2022-10-31T00:06:37;101874.59;;;18.18
75431;BMP280;64127;51.488;5.462;2022-10-31T00:09:09;101853.06;;;18.07
75431;BMP280;64127;51.488;5.462;2022-10-31T00:11:42;101864.47;;;18.05
75431;BMP280;64127;51.488;5.462;2022-10-31T00:14:14;101845.66;;;17.96
75431;BMP280;64127;51.488;5.462;2022-10-31T00:16:46;101845.72;;;17.99
75431;BMP280;64127;51.488;5.462;2022-10-31T00:19:18;101860.97;;;18.06
75431;BMP280;64127;51.488;5.462;2022-10-31T00:21:52;101860.97;;;18.06
75431;BMP280;64127;51.488;5.462;2022-10-31T00:24:24;101873.34;;;18.05
75431;BMP280;64127;51.488;5.462;2022-10-31T00:26:56;101863.53;;;18.03
75431;BMP280;64127;51.488;5.462;2022-10-31T00:29:28;101830.16;;;17.80
75431;BMP280;64127;51.488;5.462;2022-10-31T00:32:00;101847.19;;;17.88
75431;BMP280;64127;51.488;5.462;2022-10-31T00:34:33;101869.69;;;18.02
75431;BMP280;64127;51.488;5.462;2022-10-31T00:37:05;101837.41;;;17.85
75431;BMP280;64127;51.488;5.462;2022-10-31T00:39:37;101857.22;;;17.98
75431;BMP280;64127;51.488;5.462;2022-10-31T00:42:09;101852.69;;;17.94
75431;BMP280;64127;51.488;5.462;2022-10-31T00:44:41;101839.34;;;17.91
75431;BMP280;64127;51.488;5.462;2022-10-31T00:47:13;101845.63;;;17.94
75431;BMP280;64127;51.488;5.462;2022-10-31T00:49:45;101846.41;;;17.92
75431;BMP280;64127;51.488;5.462;2022-10-31T00:52:17;101843.69;;;17.89
75431;BMP280;64127;51.488;5.462;2022-10-31T00:54:49;101853.19;;;17.81
75431;BMP280;64127;51.488;5.462;2022-10-31T00:57:21;101850.63;;;17.84
75431;BMP280;64127;51.488;5.462;2022-10-31T00:59:53;101849.66;;;17.82
75431;BMP280;64127;51.488;5.462;2022-10-31T01:02:26;101806.38;;;17.53
75431;BMP280;64127;51.488;5.462;2022-10-31T01:04:58;101860.97;;;17.74
75431;BMP280;64127;51.488;5.462;2022-10-31T01:07:30;101868.91;;;17.74
75431;BMP280;64127;51.488;5.462;2022-10-31T01:10:04;101860.03;;;17.72
75431;BMP280;64127;51.488;5.462;2022-10-31T01:12:46;101839.44;;;17.64
75431;BMP280;64127;51.488;5.462;2022-10-31T01:15:22;101826.13;;;17.62
75431;BMP280;64127;51.488;5.462;2022-10-31T01:17:54;101799.88;;;17.42
75431;BMP280;64127;51.488;5.462;2022-10-31T01:20:26;101795.50;;;17.44
75431;BMP280;64127;51.488;5.462;2022-10-31T01:22:58;101820.75;;;17.59
75431;BMP280;64127;51.488;5.462;2022-10-31T01:25:30;101828.31;;;17.47
75431;BMP280;64127;51.488;5.462;2022-10-31T01:28:02;101839.97;;;17.52
75431;BMP280;64127;51.488;5.462;2022-10-31T01:30:34;101809.41;;;17.35
75431;BMP280;64127;51.488;5.462;2022-10-31T01:33:06;101838.06;;;17.48
75431;BMP280;64127;51.488;5.462;2022-10-31T01:35:38;101831.53;;;17.37
75431;BMP280;64127;51.488;5.462;2022-10-31T01:38:10;101840.47;;;17.39
75431;BMP280;64127;51.488;5.462;2022-10-31T01:40:42;101839.41;;;17.34
75431;BMP280;64127;51.488;5.462;2022-10-31T01:43:14;101848.44;;;17.41
75431;BMP280;64127;51.488;5.462;2022-10-31T01:45:52;101848.41;;;17.39
75431;BMP280;64127;51.488;5.462;2022-10-31T01:48:27;101814.13;;;17.17
75431;BMP280;64127;51.488;5.462;2022-10-31T01:50:59;101846.50;;;17.35
75431;BMP280;64127;51.488;5.462;2022-10-31T01:53:35;101842.91;;;17.33
75431;BMP280;64127;51.488;5.462;2022-10-31T01:56:08;101845.53;;;17.32
75431;BMP280;64127;51.488;5.462;2022-10-31T01:58:41;101815.94;;;17.18
75431;BMP280;64127;51.488;5.462;2022-10-31T02:01:15;101825.59;;;17.16
75431;BMP280;64127;51.488;5.462;2022-10-31T02:03:48;101803.09;;;17.02
75431;BMP280;64127;51.488;5.462;2022-10-31T02:06:46;101824.56;;;17.11
75431;BMP280;64127;51.488;5.462;2022-10-31T02:09:19;101837.97;;;17.15
75431;BMP280;64127;51.488;5.462;2022-10-31T02:11:58;101803.69;;;16.93
75431;BMP280;64127;51.488;5.462;2022-10-31T02:14:31;101826.16;;;17.06
75431;BMP280;64127;51.488;5.462;2022-10-31T02:17:03;101835.91;;;17.07
75431;BMP280;64127;51.488;5.462;2022-10-31T02:20:03;101826.81;;;16.99
75431;BMP280;64127;51.488;5.462;2022-10-31T02:32:17;101829.00;;;16.84
75431;BMP280;64127;51.488;5.462;2022-10-31T02:34:59;101828.09;;;16.83
75431;BMP280;64127;51.488;5.462;2022-10-31T02:37:51;101819.78;;;16.71
75431;BMP280;64127;51.488;5.462;2022-10-31T02:40:34;101824.28;;;16.75
75431;BMP280;64127;51.488;5.462;2022-10-31T02:43:28;101815.06;;;16.62
75431;BMP280;64127;51.488;5.462;2022-10-31T02:46:18;101792.41;;;16.45
75431;BMP280;64127;51.488;5.462;2022-10-31T02:48:56;101828.50;;;16.68
75431;BMP280;64127;51.488;5.462;2022-10-31T02:51:30;101812.31;;;16.59
75431;BMP280;64127;51.488;5.462;2022-10-31T02:54:02;101815.88;;;16.60
75431;BMP280;64127;51.488;5.462;2022-10-31T02:56:34;101828.41;;;16.65
75431;BMP280;64127;51.488;5.462;2022-10-31T02:59:06;101794.00;;;16.40
75431;BMP280;64127;51.488;5.462;2022-10-31T03:08:18;101818.41;;;16.57
75431;BMP280;64127;51.488;5.462;2022-10-31T03:11:06;101825.50;;;16.58
75431;BMP280;64127;51.488;5.462;2022-10-31T03:14:14;101826.16;;;16.52
75431;BMP280;64127;51.488;5.462;2022-10-31T03:16:54;101791.19;;;16.36
75431;BMP280;64127;51.488;5.462;2022-10-31T03:19:40;101831.78;;;16.61
75431;BMP280;64127;51.488;5.462;2022-10-31T03:22:20;101826.38;;;16.57
75431;BMP280;64127;51.488;5.462;2022-10-31T03:24:55;101812.09;;;16.53
75431;BMP280;64127;51.488;5.462;2022-10-31T03:27:32;101819.31;;;16.57
75431;BMP280;64127;51.488;5.462;2022-10-31T03:30:07;101806.47;;;16.44
75431;BMP280;64127;51.488;5.462;2022-10-31T03:32:48;101818.97;;;16.48
75431;BMP280;64127;51.488;5.462;2022-10-31T03:35:24;101831.47;;;16.52
75431;BMP280;64127;51.488;5.462;2022-10-31T03:38:00;101816.28;;;16.47
75431;BMP280;64127;51.488;5.462;2022-10-31T03:40:41;101821.41;;;16.42
75431;BMP280;64127;51.488;5.462;2022-10-31T03:43:22;101825.72;;;16.39
75431;BMP280;64127;51.488;5.462;2022-10-31T03:45:56;101824.06;;;16.42
75431;BMP280;64127;51.488;5.462;2022-10-31T03:48:29;101805.97;;;16.29
75431;BMP280;64127;51.488;5.462;2022-10-31T03:56:45;101795.94;;;16.19
75431;BMP280;64127;51.488;5.462;2022-10-31T03:59:32;101785.88;;;16.09
75431;BMP280;64127;51.488;5.462;2022-10-31T04:02:14;101798.38;;;16.13
75431;BMP280;64127;51.488;5.462;2022-10-31T04:04:48;101823.44;;;16.24
75431;BMP280;64127;51.488;5.462;2022-10-31T04:07:22;101823.34;;;16.21
75431;BMP280;64127;51.488;5.462;2022-10-31T04:09:58;101824.94;;;16.16
75431;BMP280;64127;51.488;5.462;2022-10-31T04:12:35;101825.78;;;16.15
75431;BMP280;64127;51.488;5.462;2022-10-31T04:15:10;101811.25;;;16.04
75431;BMP280;64127;51.488;5.462;2022-10-31T04:17:45;101834.63;;;16.15
75431;BMP280;64127;51.488;5.462;2022-10-31T04:20:30;101817.47;;;16.04
75431;BMP280;64127;51.488;5.462;2022-10-31T04:23:20;101807.69;;;16.02
75431;BMP280;64127;51.488;5.462;2022-10-31T04:25:52;101825.72;;;16.13
75431;BMP280;64127;51.488;5.462;2022-10-31T04:28:24;101825.72;;;16.13
75431;BMP280;64127;51.488;5.462;2022-10-31T04:30:56;101804.94;;;15.99
75431;BMP280;64127;51.488;5.462;2022-10-31T04:33:28;101812.34;;;16.09
75431;BMP280;64127;51.488;5.462;2022-10-31T04:36:00;101813.25;;;16.09
75431;BMP280;64127;51.488;5.462;2022-10-31T04:38:35;101816.66;;;16.07
75431;BMP280;64127;51.488;5.462;2022-10-31T04:41:07;101831.09;;;16.16
75431;BMP280;64127;51.488;5.462;2022-10-31T04:43:39;101827.47;;;16.13
75431;BMP280;64127;51.488;5.462;2022-10-31T04:46:11;101826.72;;;16.17
75431;BMP280;64127;51.488;5.462;2022-10-31T04:48:43;101823.94;;;16.12
75431;BMP280;64127;51.488;5.462;2022-10-31T04:51:15;101796.19;;;16.01
75431;BMP280;64127;51.488;5.462;2022-10-31T04:53:47;101790.72;;;15.97
75431;BMP280;64127;51.488;5.462;2022-10-31T04:56:19;101823.03;;;16.12
75431;BMP280;64127;51.488;5.462;2022-10-31T04:58:51;101819.28;;;16.05
75431;BMP280;64127;51.488;5.462;2022-10-31T05:01:23;101778.13;;;15.90
75431;BMP280;64127;51.488;5.462;2022-10-31T05:03:55;101803.34;;;16.04
75431;BMP280;64127;51.488;5.462;2022-10-31T05:06:27;101811.47;;;16.10
75431;BMP280;64127;51.488;5.462;2022-10-31T05:08:59;101809.72;;;16.10
75431;BMP280;64127;51.488;5.462;2022-10-31T05:11:31;101814.13;;;16.10
75431;BMP280;64127;51.488;5.462;2022-10-31T05:14:03;101810.53;;;16.08
75431;BMP280;64127;51.488;5.462;2022-10-31T05:16:35;101802.50;;;16.05
75431;BMP280;64127;51.488;5.462;2022-10-31T05:19:07;101813.91;;;16.04
75431;BMP280;64127;51.488;5.462;2022-10-31T05:21:39;101812.91;;;16.00
75431;BMP280;64127;51.488;5.462;2022-10-31T05:24:11;101807.63;;;16.00
75431;BMP280;64127;51.488;5.462;2022-10-31T05:26:43;101802.91;;;15.92
75431;BMP280;64127;51.488;5.462;2022-10-31T05:29:15;101809.13;;;15.92
75431;BMP280;64127;51.488;5.462;2022-10-31T05:31:47;101809.88;;;15.90
75431;BMP280;64127;51.488;5.462;2022-10-31T05:34:19;101803.66;;;15.88
75431;BMP280;64127;51.488;5.462;2022-10-31T05:36:51;101792.97;;;15.85
75431;BMP280;64127;51.488;5.462;2022-10-31T05:39:23;101793.81;;;15.84
75431;BMP280;64127;51.488;5.462;2022-10-31T05:41:55;101778.38;;;15.72
75431;BMP280;64127;51.488;5.462;2022-10-31T05:44:27;101807.84;;;15.83
75431;BMP280;64127;51.488;5.462;2022-10-31T05:46:59;101802.47;;;15.80
75431;BMP280;64127;51.488;5.462;2022-10-31T05:49:31;101797.19;;;15.80
75431;BMP280;64127;51.488;5.462;2022-10-31T05:52:03;101763.13;;;15.63
75431;BMP280;64127;51.488;5.462;2022-10-31T05:54:35;101787.94;;;15.68
75431;BMP280;64127;51.488;5.462;2022-10-31T05:57:08;101762.03;;;15.58
75431;BMP280;64127;51.488;5.462;2022-10-31T05:59:40;101780.00;;;15.67
75431;BMP280;64127;51.488;5.462;2022-10-31T06:02:12;101782.66;;;15.68
75431;BMP280;64127;51.488;5.462;2022-10-31T06:04:44;101762.78;;;15.54
75431;BMP280;64127;51.488;5.462;2022-10-31T06:07:16;101758.25;;;15.50
75431;BMP280;64127;51.488;5.462;2022-10-31T06:09:48;101782.44;;;15.62
75431;BMP280;64127;51.488;5.462;2022-10-31T06:12:20;101730.94;;;15.28
75431;BMP280;64127;51.488;5.462;2022-10-31T06:14:52;101739.34;;;15.41
75431;BMP280;64127;51.488;5.462;2022-10-31T06:17:24;101782.16;;;15.55
75431;BMP280;64127;51.488;5.462;2022-10-31T06:19:56;101742.75;;;15.37
75431;BMP280;64127;51.488;5.462;2022-10-31T06:22:28;101782.97;;;15.52
75431;BMP280;64127;51.488;5.462;2022-10-31T06:25:00;101760.78;;;15.72
75431;BMP280;64127;51.488;5.462;2022-10-31T06:27:32;101778.69;;;15.56
75431;BMP280;64127;51.488;5.462;2022-10-31T06:30:05;101770.22;;;15.42
75431;BMP280;64127;51.488;5.462;2022-10-31T06:32:37;101771.38;;;15.49
75431;BMP280;64127;51.488;5.462;2022-10-31T06:35:09;101779.38;;;15.50
75431;BMP280;64127;51.488;5.462;2022-10-31T06:37:41;101786.41;;;15.50
75431;BMP280;64127;51.488;5.462;2022-10-31T06:40:18;101778.25;;;15.45
75431;BMP280;64127;51.488;5.462;2022-10-31T06:43:03;101791.56;;;15.47
75431;BMP280;64127;51.488;5.462;2022-10-31T06:45:35;101774.50;;;15.39
75431;BMP280;64127;51.488;5.462;2022-10-31T06:48:08;101775.63;;;15.45
75431;BMP280;64127;51.488;5.462;2022-10-31T06:50:48;101787.31;;;15.50
75431;BMP280;64127;51.488;5.462;2022-10-31T06:53:20;101753.22;;;15.34
75431;BMP280;64127;51.488;5.462;2022-10-31T06:55:52;101771.31;;;15.47
75431;BMP280;64127;51.488;5.462;2022-10-31T06:58:24;101786.59;;;15.54
75431;BMP280;64127;51.488;5.462;2022-10-31T07:01:00;101747.06;;;15.35
75431;BMP280;64127;51.488;5.462;2022-10-31T07:03:32;101758.72;;;15.40
75431;BMP280;64127;51.488;5.462;2022-10-31T07:06:05;101748.03;;;15.37
75431;BMP280;64127;51.488;5.462;2022-10-31T07:08:37;101778.88;;;15.60
75431;BMP280;64127;51.488;5.462;2022-10-31T07:11:09;101777.16;;;15.62
75431;BMP280;64127;51.488;5.462;2022-10-31T07:13:41;101783.44;;;15.64
75431;BMP280;64127;51.488;5.462;2022-10-31T07:16:13;101768.28;;;15.60
75431;BMP280;64127;51.488;5.462;2022-10-31T07:18:45;101766.38;;;15.56
75431;BMP280;64127;51.488;5.462;2022-10-31T07:21:17;101778.28;;;15.69
75431;BMP280;64127;51.488;5.462;2022-10-31T07:23:49;101787.34;;;15.76
75431;BMP280;64127;51.488;5.462;2022-10-31T07:26:21;101781.22;;;15.77
75431;BMP280;64127;51.488;5.462;2022-10-31T07:28:53;101784.75;;;15.77
75431;BMP280;64127;51.488;5.462;2022-10-31T07:31:25;101789.25;;;15.80
75431;BMP280;64127;51.488;5.462;2022-10-31T07:33:57;101796.34;;;15.81
75431;BMP280;64127;51.488;5.462;2022-10-31T07:36:29;101794.72;;;15.84
75431;BMP280;64127;51.488;5.462;2022-10-31T07:39:04;101775.09;;;15.78
75431;BMP280;64127;51.488;5.462;2022-10-31T07:41:37;101788.63;;;15.87
75431;BMP280;64127;51.488;5.462;2022-10-31T07:44:09;101800.41;;;15.96
75431;BMP280;64127;51.488;5.462;2022-10-31T07:46:41;101796.19;;;16.01
75431;BMP280;64127;51.488;5.462;2022-10-31T07:49:13;101781.88;;;15.95
75431;BMP280;64127;51.488;5.462;2022-10-31T07:51:44;101779.59;;;16.05
75431;BMP280;64127;51.488;5.462;2022-10-31T07:54:17;101765.19;;;15.97
75431;BMP280;64127;51.488;5.462;2022-10-31T07:56:49;101801.31;;;16.22
75431;BMP280;64127;51.488;5.462;2022-10-31T07:59:21;101785.44;;;16.22
75431;BMP280;64127;51.488;5.462;2022-10-31T08:01:53;101756.81;;;16.10
75431;BMP280;64127;51.488;5.462;2022-10-31T08:04:25;101799.34;;;16.42
75431;BMP280;64127;51.488;5.462;2022-10-31T08:06:57;101796.13;;;16.50
75431;BMP280;64127;51.488;5.462;2022-10-31T08:09:29;101787.28;;;16.51
75431;BMP280;64127;51.488;5.462;2022-10-31T08:12:05;101775.78;;;16.49
75431;BMP280;64127;51.488;5.462;2022-10-31T08:14:37;101784.03;;;16.58
75431;BMP280;64127;51.488;5.462;2022-10-31T08:17:09;101802.31;;;16.78
75431;BMP280;64127;51.488;5.462;2022-10-31T08:19:42;101800.78;;;16.86
75431;BMP280;64127;51.488;5.462;2022-10-31T08:22:13;101788.59;;;16.91
75431;BMP280;64127;51.488;5.462;2022-10-31T08:24:45;101770.09;;;16.92
75431;BMP280;64127;51.488;5.462;2022-10-31T08:27:17;101780.13;;;17.02
75431;BMP280;64127;51.488;5.462;2022-10-31T08:29:49;101789.22;;;17.10
75431;BMP280;64127;51.488;5.462;2022-10-31T08:32:21;101758.00;;;17.00
75431;BMP280;64127;51.488;5.462;2022-10-31T08:34:53;101789.72;;;17.27
75431;BMP280;64127;51.488;5.462;2022-10-31T08:37:25;101771.81;;;17.20
75431;BMP280;64127;51.488;5.462;2022-10-31T08:39:57;101786.22;;;17.30
75431;BMP280;64127;51.488;5.462;2022-10-31T08:42:29;101744.06;;;17.07
75431;BMP280;64127;51.488;5.462;2022-10-31T08:45:05;101744.91;;;17.06
75431;BMP280;64127;51.488;5.462;2022-10-31T08:47:37;101719.91;;;16.97
75431;BMP280;64127;51.488;5.462;2022-10-31T08:50:09;101717.09;;;16.91
75431;BMP280;64127;51.488;5.462;2022-10-31T08:52:41;101730.41;;;16.94
75431;BMP280;64127;51.488;5.462;2022-10-31T08:55:37;101737.22;;;16.86
75431;BMP280;64127;51.488;5.462;2022-10-31T08:58:16;101762.03;;;16.88
75431;BMP280;64127;51.488;5.462;2022-10-31T09:00:52;101762.03;;;16.88
75431;BMP280;64127;51.488;5.462;2022-10-31T09:03:30;101737.13;;;16.83
75431;BMP280;64127;51.488;5.462;2022-10-31T09:06:03;101747.13;;;16.91
75431;BMP280;64127;51.488;5.462;2022-10-31T09:08:37;101733.91;;;16.93
75431;BMP280;64127;51.488;5.462;2022-10-31T09:11:09;101758.88;;;17.01
75431;BMP280;64127;51.488;5.462;2022-10-31T09:13:41;101753.84;;;17.10
75431;BMP280;64127;51.488;5.462;2022-10-31T09:16:13;101773.72;;;17.24
75431;BMP280;64127;51.488;5.462;2022-10-31T09:18:45;101757.72;;;17.21
75431;BMP280;64127;51.488;5.462;2022-10-31T09:21:17;101744.03;;;17.36
75431;BMP280;64127;51.488;5.462;2022-10-31T09:23:49;101731.75;;;17.39
75431;BMP280;64127;51.488;5.462;2022-10-31T09:26:21;101727.59;;;17.49
75431;BMP280;64127;51.488;5.462;2022-10-31T09:28:53;101717.69;;;17.43
75431;BMP280;64127;51.488;5.462;2022-10-31T09:31:25;101739.38;;;17.58
75431;BMP280;64127;51.488;5.462;2022-10-31T09:33:57;101710.09;;;17.55
75431;BMP280;64127;51.488;5.462;2022-10-31T09:36:29;101701.25;;;17.55
75431;BMP280;64127;51.488;5.462;2022-10-31T09:39:02;101695.00;;;17.53
75431;BMP280;64127;51.488;5.462;2022-10-31T09:42:25;101692.06;;;17.42
75431;BMP280;64127;51.488;5.462;2022-10-31T09:45:23;101680.50;;;17.40
75431;BMP280;64127;51.488;5.462;2022-10-31T09:49:21;101692.59;;;17.29
75431;BMP280;64127;51.488;5.462;2022-10-31T09:51:42;101688.22;;;17.31
75431;BMP280;64127;51.488;5.462;2022-10-31T09:54:38;101701.78;;;17.43
75431;BMP280;64127;51.488;5.462;2022-10-31T09:57:22;101677.59;;;17.31
75431;BMP280;64127;51.488;5.462;2022-10-31T09:59:56;101685.94;;;17.45
75431;BMP280;64127;51.488;5.462;2022-10-31T10:02:59;101680.50;;;17.40
75431;BMP280;64127;51.488;5.462;2022-10-31T10:06:23;101633.97;;;17.18
75431;BMP280;64127;51.488;5.462;2022-10-31T10:08:56;101682.75;;;17.56
75431;BMP280;64127;51.488;5.462;2022-10-31T10:21:16;101671.94;;;18.19
75431;BMP280;64127;51.488;5.462;2022-10-31T10:27:10;101617.75;;;18.09
75431;BMP280;64127;51.488;5.462;2022-10-31T10:30:16;101653.66;;;18.31
75431;BMP280;64127;51.488;5.462;2022-10-31T10:32:57;101632.31;;;18.27
75431;BMP280;64127;51.488;5.462;2022-10-31T10:35:35;101640.41;;;18.31
75431;BMP280;64127;51.488;5.462;2022-10-31T10:38:24;101637.75;;;18.31
75431;BMP280;64127;51.488;5.462;2022-10-31T10:41:02;101636.94;;;18.35
75431;BMP280;64127;51.488;5.462;2022-10-31T10:43:37;101586.75;;;18.07
75431;BMP280;64127;51.488;5.462;2022-10-31T10:49:52;101649.38;;;18.38
75431;BMP280;64127;51.488;5.462;2022-10-31T10:52:50;101637.09;;;18.43
75431;BMP280;64127;51.488;5.462;2022-10-31T10:55:41;101631.88;;;18.46
75431;BMP280;64127;51.488;5.462;2022-10-31T10:58:15;101626.69;;;18.50
75431;BMP280;64127;51.488;5.462;2022-10-31T11:00:48;101613.47;;;18.53
75431;BMP280;64127;51.488;5.462;2022-10-31T11:03:21;101619.66;;;18.52
75431;BMP280;64127;51.488;5.462;2022-10-31T11:05:57;101558.75;;;18.21
75431;BMP280;64127;51.488;5.462;2022-10-31T11:08:36;101621.59;;;18.59
75431;BMP280;64127;51.488;5.462;2022-10-31T11:11:25;101614.53;;;18.61
75431;BMP280;64127;51.488;5.462;2022-10-31T11:14:03;101616.47;;;18.68
75431;BMP280;64127;51.488;5.462;2022-10-31T11:16:41;101614.69;;;18.69
75431;BMP280;64127;51.488;5.462;2022-10-31T11:19:24;101605.03;;;18.72
75431;BMP280;64127;51.488;5.462;2022-10-31T11:22:08;101602.44;;;18.76
75431;BMP280;64127;51.488;5.462;2022-10-31T11:24:45;101581.19;;;18.76
75431;BMP280;64127;51.488;5.462;2022-10-31T11:27:24;101551.72;;;18.65
75431;BMP280;64127;51.488;5.462;2022-10-31T11:30:07;101554.38;;;18.65
75431;BMP280;64127;51.488;5.462;2022-10-31T11:32:50;101479.34;;;18.33
75431;BMP280;64127;51.488;5.462;2022-10-31T11:35:25;101567.16;;;18.83
75431;BMP280;64127;51.488;5.462;2022-10-31T11:37:59;101518.94;;;18.64
75431;BMP280;64127;51.488;5.462;2022-10-31T11:40:34;101543.38;;;18.90
75431;BMP280;64127;51.488;5.462;2022-10-31T11:43:17;101535.66;;;19.04
75431;BMP280;64127;51.488;5.462;2022-10-31T11:45:50;101533.09;;;19.11
75431;BMP280;64127;51.488;5.462;2022-10-31T11:48:24;101525.13;;;19.11
75431;BMP280;64127;51.488;5.462;2022-10-31T11:50:58;101455.53;;;18.83
75431;BMP280;64127;51.488;5.462;2022-10-31T11:53:33;101511.31;;;19.31
75431;BMP280;64127;51.488;5.462;2022-10-31T11:56:16;101507.09;;;19.42
75431;BMP280;64127;51.488;5.462;2022-10-31T11:59:03;101513.59;;;19.60
75431;BMP280;64127;51.488;5.462;2022-10-31T12:01:40;101466.47;;;19.52
75431;BMP280;64127;51.488;5.462;2022-10-31T12:04:18;101477.38;;;19.71
75431;BMP280;64127;51.488;5.462;2022-10-31T12:06:50;101457.84;;;19.71
75431;BMP280;64127;51.488;5.462;2022-10-31T12:09:32;101482.91;;;19.87
75431;BMP280;64127;51.488;5.462;2022-10-31T12:12:31;101466.84;;;19.79
75431;BMP280;64127;51.488;5.462;2022-10-31T12:15:28;101461.53;;;19.79
75431;BMP280;64127;51.488;5.462;2022-10-31T12:19:04;101456.06;;;19.70
75431;BMP280;64127;51.488;5.462;2022-10-31T12:27:59;101426.97;;;19.84
75431;BMP280;64127;51.488;5.462;2022-10-31T12:31:32;101430.69;;;19.98
75431;BMP280;64127;51.488;5.462;2022-10-31T12:40:27;101406.72;;;20.74
75431;BMP280;64127;51.488;5.462;2022-10-31T12:53:00;101361.75;;;21.21
75431;BMP280;64127;51.488;5.462;2022-10-31T12:58:40;101345.00;;;21.45
75431;BMP280;64127;51.488;5.462;2022-10-31T13:01:46;101341.34;;;21.28
75431;BMP280;64127;51.488;5.462;2022-10-31T13:04:56;101335.03;;;21.14
75431;BMP280;64127;51.488;5.462;2022-10-31T13:07:42;101330.66;;;21.28
75431;BMP280;64127;51.488;5.462;2022-10-31T13:13:02;101314.84;;;21.67
75431;BMP280;64127;51.488;5.462;2022-10-31T13:15:49;101292.63;;;21.74
75431;BMP280;64127;51.488;5.462;2022-10-31T13:18:47;101281.91;;;21.68
75431;BMP280;64127;51.488;5.462;2022-10-31T13:21:34;101254.25;;;21.51
75431;BMP280;64127;51.488;5.462;2022-10-31T13:24:16;101257.81;;;21.47
75431;BMP280;64127;51.488;5.462;2022-10-31T13:26:57;101280.13;;;21.69
75431;BMP280;64127;51.488;5.462;2022-10-31T13:33:18;101249.09;;;22.27
75431;BMP280;64127;51.488;5.462;2022-10-31T13:38:30;101249.09;;;22.77
75431;BMP280;64127;51.488;5.462;2022-10-31T13:44:23;101220.44;;;23.05
75431;BMP280;64127;51.488;5.462;2022-10-31T13:46:57;101216.84;;;23.16
75431;BMP280;64127;51.488;5.462;2022-10-31T13:52:22;101209.84;;;22.81
75431;BMP280;64127;51.488;5.462;2022-10-31T13:54:54;101223.19;;;22.78
75431;BMP280;64127;51.488;5.462;2022-10-31T13:57:38;101215.22;;;22.41
75431;BMP280;64127;51.488;5.462;2022-10-31T14:02:56;101203.59;;;21.66
75431;BMP280;64127;51.488;5.462;2022-10-31T14:05:34;101210.66;;;21.43
75431;BMP280;64127;51.488;5.462;2022-10-31T14:08:21;101205.22;;;21.20
75431;BMP280;64127;51.488;5.462;2022-10-31T14:10:56;101192.69;;;21.01
75431;BMP280;64127;51.488;5.462;2022-10-31T14:13:35;101209.66;;;21.11
75431;BMP280;64127;51.488;5.462;2022-10-31T14:16:32;101205.13;;;21.04
75431;BMP280;64127;51.488;5.462;2022-10-31T14:19:20;101190.00;;;20.97
75431;BMP280;64127;51.488;5.462;2022-10-31T14:21:54;101189.16;;;21.07
75431;BMP280;64127;51.488;5.462;2022-10-31T14:30:14;101183.06;;;21.44
75431;BMP280;64127;51.488;5.462;2022-10-31T14:32:52;101175.97;;;21.40
75431;BMP280;64127;51.488;5.462;2022-10-31T14:35:51;101169.66;;;21.14
75431;BMP280;64127;51.488;5.462;2022-10-31T14:39:17;101170.44;;;20.92
75431;BMP280;64127;51.488;5.462;2022-10-31T14:42:01;101176.59;;;20.79
75431;BMP280;64127;51.488;5.462;2022-10-31T14:45:02;101175.66;;;20.70
75431;BMP280;64127;51.488;5.462;2022-10-31T14:50:50;101156.34;;;21.24
75431;BMP280;64127;51.488;5.462;2022-10-31T14:53:26;101140.41;;;21.64
75431;BMP280;64127;51.488;5.462;2022-10-31T14:55:59;101145.78;;;21.96
75431;BMP280;64127;51.488;5.462;2022-10-31T14:58:40;101076.34;;;21.93
75431;BMP280;64127;51.488;5.462;2022-10-31T15:01:34;101130.56;;;22.49
75431;BMP280;64127;51.488;5.462;2022-10-31T15:04:22;101102.00;;;22.54
75431;BMP280;64127;51.488;5.462;2022-10-31T15:07:14;101104.66;;;22.72
75431;BMP280;64127;51.488;5.462;2022-10-31T15:10:02;101078.81;;;22.71
75431;BMP280;64127;51.488;5.462;2022-10-31T15:12:35;101090.28;;;22.92
75431;BMP280;64127;51.488;5.462;2022-10-31T15:15:25;101079.69;;;22.64
75431;BMP280;64127;51.488;5.462;2022-10-31T15:17:59;101070.00;;;22.30
75431;BMP280;64127;51.488;5.462;2022-10-31T15:20:44;101070.09;;;21.97
75431;BMP280;64127;51.488;5.462;2022-10-31T15:23:29;101042.50;;;21.51
75431;BMP280;64127;51.488;5.462;2022-10-31T15:26:05;101067.44;;;21.48
75431;BMP280;64127;51.488;5.462;2022-10-31T15:28:37;101063.88;;;21.33
75431;BMP280;64127;51.488;5.462;2022-10-31T15:31:16;101030.91;;;20.97
75431;BMP280;64127;51.488;5.462;2022-10-31T15:33:51;101060.25;;;20.99
75431;BMP280;64127;51.488;5.462;2022-10-31T15:36:25;101061.97;;;20.86
75431;BMP280;64127;51.488;5.462;2022-10-31T15:39:02;101046.84;;;20.71
75431;BMP280;64127;51.488;5.462;2022-10-31T15:47:23;101027.91;;;20.15
75431;BMP280;64127;51.488;5.462;2022-10-31T15:49:58;101051.13;;;20.30
75431;BMP280;64127;51.488;5.462;2022-10-31T15:52:43;101024.34;;;20.09
75431;BMP280;64127;51.488;5.462;2022-10-31T15:55:23;101044.78;;;20.17
75431;BMP280;64127;51.488;5.462;2022-10-31T15:58:02;101043.84;;;20.11
75431;BMP280;64127;51.488;5.462;2022-10-31T16:00:38;101043.84;;;20.08
75431;BMP280;64127;51.488;5.462;2022-10-31T16:05:55;101021.50;;;19.83
75431;BMP280;64127;51.488;5.462;2022-10-31T16:14:15;101033.88;;;19.72
75431;BMP280;64127;51.488;5.462;2022-10-31T16:16:55;101033.88;;;19.73
75431;BMP280;64127;51.488;5.462;2022-10-31T16:19:37;101019.59;;;19.61
75431;BMP280;64127;51.488;5.462;2022-10-31T16:22:38;101024.91;;;19.58
75431;BMP280;64127;51.488;5.462;2022-10-31T16:28:14;100999.09;;;19.46
75431;BMP280;64127;51.488;5.462;2022-10-31T16:31:13;101025.84;;;19.64
75431;BMP280;64127;51.488;5.462;2022-10-31T16:33:45;100961.69;;;19.28
75431;BMP280;64127;51.488;5.462;2022-10-31T16:36:33;101031.13;;;19.61
75431;BMP280;64127;51.488;5.462;2022-10-31T16:39:09;101012.47;;;19.55
75431;BMP280;64127;51.488;5.462;2022-10-31T16:41:45;100979.47;;;19.35
75431;BMP280;64127;51.488;5.462;2022-10-31T16:44:22;100969.63;;;19.25